メインページ
METAR-TAF:

METAR-TAF

空港 :

Quesnel, ブリティッシュコロンビア州, カナダ

緯度: 53-02N, 経度: 122-31W, 海抜: 545m

現時点の気象観測

当レポートは37分前の21:00(UTC)に作成
の風 4kt
気温 1°C
湿度 69%
気圧 1011 hPa
視程: 14.5km
晴天

METAR: CYQZ 152100Z AUTO 17004KT 9SM CLR 01/M04 A2986 RMK SLP140

時間: 13:37 (21:37 UTC)

予報

当レポートは2時間59分前の18:38(UTC)に作成
予報は15日の 19時(UTC)から 16日の 06時(UTC)まで有効
変向風 3kt
視程: 10km
高度8000ftの雲はほとんどない
高度20000ftの千切れ雲あり
15日の 19時(UTC)から 15日の 21時(UTC)まで徐々に
南/南東の風 10kt
16日の 0500時(UTC)から
南/南東の風 12kt、最大22ktの突風を伴う
視程: 10km
高度12000ftの千切れ雲あり

TAF: CYQZ 151838Z 1519/1606 VRB03KT P6SM FEW080 BKN200 BECMG 1519/1521 15010KT FM160500 15012G22KT P6SM BKN120 RMK FCST BASED ON AUTO OBS. NXT FCST BY 160100Z

4,000以上の空港の気象観測と天気予報(METAR報とTAF報)

利用可能な観測所は地図上に黄色い丸と赤い丸で示す。

丸の上にカーソルを重ねると観測所名を参照できる。

次にクリックすると気象観測と天気予報を参照できる。

マップの切り替え:黒色「×」印の緑ボタンをクリックして拡大、「-」印の緑ボタンをクリックして縮小、緑色の三角印をクリックして隣りの地図に切り替え


METAR-TAF: